Time;durP1;ratioP1;P1;durP2;ratioP2;P2;SDS_P1;SDS_P2;PMS_P1;PMS_P2;Temp;Humidity;BMP_temperature;BMP_pressure;BME280_temperature;BME280_humidity;BME280_pressure;Samples;Min_cycle;Max_cycle;Signal;HPM_P1;HPM_P2
2022/04/25 00:01:00;;;;;;;54.40;16.97;;;;;;;12.99;69.62;98020.66;4189678;28;20227;-60
2022/04/25 00:03:03;;;;;;;35.43;17.10;;;;;;;12.97;69.09;98019.25;4190004;28;20258;-60
2022/04/25 00:05:05;;;;;;;31.17;16.50;;;;;;;12.85;69.82;98035.09;4189359;28;20231;-61
2022/04/25 00:07:07;;;;;;;79.57;17.67;;;;;;;12.78;70.03;98039.66;4189564;28;20239;-60
2022/04/25 00:09:08;;;;;;;42.53;16.13;;;;;;;12.48;71.03;98056.22;4190263;28;20656;-61
2022/04/25 00:11:10;;;;;;;29.97;17.43;;;;;;;12.26;71.86;98091.16;4191896;28;20243;-61
2022/04/25 00:13:14;;;;;;;45.27;17.27;;;;;;;12.58;71.13;98063.78;4192306;28;20245;-59
2022/04/25 00:15:15;;;;;;;68.57;18.23;;;;;;;12.52;71.08;98061.94;4191453;28;20269;-61
2022/04/25 00:17:17;;;;;;;55.33;17.73;;;;;;;12.91;69.74;98034.28;4192428;28;20239;-61
2022/04/25 00:19:19;;;;;;;60.50;17.20;;;;;;;12.30;71.64;98067.59;4192450;28;20752;-58
2022/04/25 00:21:21;;;;;;;20.30;16.23;;;;;;;12.45;71.07;98060.16;4193066;28;20265;-59
2022/04/25 00:23:24;;;;;;;24.00;15.53;;;;;;;12.44;71.06;98074.50;4191801;28;20231;-59
2022/04/25 00:25:26;;;;;;;32.43;16.93;;;;;;;12.19;70.67;98086.91;4192741;28;20235;-60
2022/04/25 00:27:29;;;;;;;28.90;16.83;;;;;;;12.59;70.27;98050.25;4192649;28;20536;-60
2022/04/25 00:29:31;;;;;;;25.53;17.17;;;;;;;12.52;70.25;98054.75;4192355;28;20247;-60
2022/04/25 00:31:32;;;;;;;36.17;17.57;;;;;;;13.24;68.54;98029.72;4192283;28;20277;-60
2022/04/25 00:33:34;;;;;;;37.80;18.00;;;;;;;12.87;69.61;98038.38;4192666;28;20272;-59
2022/04/25 00:35:36;;;;;;;36.37;17.73;;;;;;;13.11;68.71;98026.13;4192496;28;20232;-60
2022/04/25 00:37:38;;;;;;;32.60;16.53;;;;;;;12.61;69.93;98052.69;4192169;28;20227;-61
2022/04/25 00:39:39;;;;;;;42.10;16.77;;;;;;;13.16;68.34;98023.63;4191880;28;20227;-60
2022/04/25 00:41:41;;;;;;;37.03;17.07;;;;;;;12.45;70.10;98052.16;4192168;28;20238;-62
2022/04/25 00:43:43;;;;;;;36.07;16.20;;;;;;;12.69;69.92;98048.94;4186916;28;20963;-61
2022/04/25 00:45:44;;;;;;;33.80;15.73;;;;;;;12.97;69.16;98030.72;4192051;28;20231;-59
2022/04/25 00:47:47;;;;;;;47.70;16.57;;;;;;;13.34;67.21;98014.81;4192946;28;20231;-60
2022/04/25 00:49:48;;;;;;;43.47;15.13;;;;;;;12.86;69.41;98018.06;4192115;28;20231;-61
2022/04/25 00:51:51;;;;;;;59.27;14.60;;;;;;;13.29;67.85;98016.53;4193015;28;20285;-61
2022/04/25 00:53:53;;;;;;;79.47;15.90;;;;;;;13.05;68.36;98024.31;4192430;28;20372;-60
2022/04/25 00:55:55;;;;;;;74.97;15.70;;;;;;;13.50;66.81;98005.44;4191475;28;20235;-61
2022/04/25 00:57:58;;;;;;;41.63;14.27;;;;;;;12.67;69.68;98044.66;4192574;28;20231;-60
2022/04/25 01:00:00;;;;;;;28.77;13.67;;;;;;;11.84;71.09;98105.81;4192596;28;20239;-61
2022/04/25 01:02:03;;;;;;;54.40;13.20;;;;;;;11.39;74.42;98220.06;4191224;28;20240;-60
2022/04/25 01:04:05;;;;;;;31.00;13.50;;;;;;;12.28;71.10;98109.63;4191767;28;20235;-61
2022/04/25 01:06:07;;;;;;;62.00;13.67;;;;;;;11.83;73.22;98157.41;4192080;28;20285;-61
2022/04/25 01:08:09;;;;;;;47.23;13.10;;;;;;;12.50;68.89;98064.81;4191648;28;20643;-59
2022/04/25 01:10:11;;;;;;;43.83;13.70;;;;;;;12.74;68.50;98068.63;4192521;28;20257;-61
2022/04/25 01:12:13;;;;;;;43.93;12.80;;;;;;;12.22;70.56;98091.81;4191975;28;20281;-61
2022/04/25 01:14:17;;;;;;;77.90;13.63;;;;;;;12.78;67.83;98051.13;4187249;28;20316;-61
2022/04/25 01:16:20;;;;;;;51.53;13.27;;;;;;;12.67;69.02;98067.81;4191947;28;20239;-61
2022/04/25 01:18:22;;;;;;;50.00;13.67;;;;;;;12.69;68.66;98071.09;4190662;28;20233;-60
2022/04/25 01:20:23;;;;;;;45.63;12.97;;;;;;;13.31;66.91;98047.28;4190109;28;20239;-60
2022/04/25 01:22:32;;;;;;;39.10;12.43;;;;;;;11.93;71.31;98133.88;4192318;28;20266;-61
2022/04/25 01:29:16;;;;;;;36.67;11.87;;;;;;;11.95;72.07;98139.00;4189178;28;20265;-60
2022/04/25 01:31:18;;;;;;;50.80;12.23;;;;;;;12.57;70.55;98088.78;4186405;28;20725;-61
2022/04/25 01:33:19;;;;;;;40.77;12.10;;;;;;;12.46;69.32;98064.44;4190095;28;20229;-60
2022/04/25 01:35:21;;;;;;;44.77;11.90;;;;;;;12.59;70.31;98086.72;4192063;28;20328;-59
2022/04/25 01:37:23;;;;;;;62.03;12.93;;;;;;;13.40;66.94;98013.94;4186288;28;20227;-60
2022/04/25 01:39:25;;;;;;;57.60;12.33;;;;;;;12.52;69.65;98059.28;4184321;28;20736;-60
2022/04/25 01:41:27;;;;;;;65.23;12.80;;;;;;;12.34;71.25;98103.47;4190993;28;20223;-61
2022/04/25 01:43:28;;;;;;;64.83;14.23;;;;;;;12.82;68.87;98040.84;4186214;28;20231;-60
2022/04/25 01:45:30;;;;;;;48.67;12.40;;;;;;;13.38;66.81;98016.03;4190942;28;20235;-60
2022/04/25 01:47:32;;;;;;;82.63;13.80;;;;;;;13.42;66.46;98011.06;4191060;28;20235;-61
2022/04/25 01:49:34;;;;;;;50.03;12.83;;;;;;;12.75;69.21;98058.75;4191351;28;20223;-61
2022/04/25 01:51:39;;;;;;;64.73;14.10;;;;;;;12.84;68.97;98057.44;4190724;28;20280;-61
2022/04/25 01:53:41;;;;;;;51.77;13.47;;;;;;;12.80;68.82;98061.59;4191285;28;20220;-61
2022/04/25 01:55:42;;;;;;;57.13;13.13;;;;;;;12.65;68.72;98061.88;4191221;28;20227;-60
2022/04/25 01:57:44;;;;;;;32.37;13.30;;;;;;;12.42;70.22;98087.22;4190926;28;20219;-61
2022/04/25 01:59:46;;;;;;;45.10;13.10;;;;;;;13.05;67.94;98042.19;4191214;28;20634;-59
2022/04/25 02:01:48;;;;;;;42.63;13.03;;;;;;;12.60;69.19;98059.03;4191220;28;20239;-61
2022/04/25 02:03:50;;;;;;;31.30;13.53;;;;;;;12.96;67.82;98055.78;4190225;28;20231;-60
2022/04/25 02:05:52;;;;;;;31.87;14.07;;;;;;;13.03;67.10;98031.72;4183546;28;20895;-61
2022/04/25 02:07:54;;;;;;;46.07;13.83;;;;;;;12.58;69.35;98067.25;4187033;28;21466;-61
2022/04/25 02:09:56;;;;;;;33.33;13.67;;;;;;;12.21;70.27;98111.50;4187911;28;20285;-61
2022/04/25 02:11:57;;;;;;;34.30;12.93;;;;;;;11.83;71.62;98142.28;4184203;28;20232;-61
2022/04/25 02:13:59;;;;;;;55.20;13.73;;;;;;;12.15;70.39;98109.66;4189257;28;20238;-60
2022/04/25 02:16:01;;;;;;;37.73;11.87;;;;;;;11.83;71.66;98136.13;4190866;28;20243;-61
2022/04/25 02:18:03;;;;;;;38.03;12.33;;;;;;;12.72;68.64;98081.31;4191177;28;20235;-61
2022/04/25 02:20:05;;;;;;;30.83;13.33;;;;;;;10.80;75.31;98248.91;4191237;28;20235;-61
2022/04/25 02:22:09;;;;;;;25.93;12.90;;;;;;;10.27;75.39;98275.16;4190475;28;20227;-61
2022/04/25 02:24:11;;;;;;;34.43;12.50;;;;;;;9.39;79.86;98328.41;4190719;28;20227;-61
2022/04/25 02:26:13;;;;;;;37.80;11.87;;;;;;;10.22;79.74;98287.16;4190600;28;20242;-61
2022/04/25 02:28:15;;;;;;;59.63;12.93;;;;;;;12.30;70.28;98062.25;4187107;28;20246;-60
2022/04/25 02:30:17;;;;;;;36.00;11.63;;;;;;;12.82;67.94;98035.53;4186108;28;20219;-60
2022/04/25 02:32:18;;;;;;;28.63;12.37;;;;;;;12.34;70.11;98094.66;4187026;28;20231;-61
2022/04/25 02:34:21;;;;;;;48.37;13.03;;;;;;;11.61;71.73;98136.34;4190025;28;20231;-61
2022/04/25 02:36:24;;;;;;;25.50;12.23;;;;;;;10.69;74.40;98239.63;4190621;28;20269;-61
2022/04/25 02:38:25;;;;;;;41.97;12.20;;;;;;;11.26;74.69;98208.38;4184956;28;20708;-62
2022/04/25 02:40:27;;;;;;;37.77;13.27;;;;;;;11.24;72.90;98167.00;4185517;28;20239;-61
2022/04/25 02:42:29;;;;;;;54.03;12.90;;;;;;;10.43;77.22;98280.16;4189901;28;20716;-61
2022/04/25 02:44:30;;;;;;;16.27;11.80;;;;;;;11.87;71.95;98110.75;4186065;28;20232;-61
2022/04/25 02:46:33;;;;;;;15.77;11.20;;;;;;;11.54;73.12;98147.00;4189703;28;20282;-61
2022/04/25 02:48:35;;;;;;;14.13;11.80;;;;;;;11.30;73.93;98184.84;4191138;28;20242;-61
2022/04/25 02:50:37;;;;;;;19.60;11.80;;;;;;;12.25;70.61;98086.88;4191229;28;20261;-61
2022/04/25 02:52:39;;;;;;;18.00;11.70;;;;;;;12.31;70.79;98093.22;4190607;28;20254;-61
2022/04/25 02:54:40;;;;;;;23.30;12.33;;;;;;;11.61;72.78;98147.00;4190626;28;20231;-61
2022/04/25 02:56:43;;;;;;;27.20;12.83;;;;;;;12.48;69.77;98086.38;4190978;28;20749;-61
2022/04/25 02:58:45;;;;;;;22.93;12.53;;;;;;;11.95;71.43;98099.88;4190668;28;20231;-60
2022/04/25 03:00:47;;;;;;;18.30;13.20;;;;;;;11.74;72.00;98111.56;4190771;28;20766;-60
2022/04/25 03:02:49;;;;;;;16.57;12.73;;;;;;;11.69;72.51;98143.31;4190167;28;20235;-60
2022/04/25 03:04:51;;;;;;;15.63;12.90;;;;;;;11.38;74.42;98189.16;4189551;28;20607;-61
2022/04/25 03:06:54;;;;;;;19.27;12.17;;;;;;;12.07;71.39;98110.72;4183757;28;20232;-61
2022/04/25 03:08:55;;;;;;;31.80;12.60;;;;;;;11.05;73.91;98195.22;4190888;28;20300;-61
2022/04/25 03:10:57;;;;;;;40.43;13.50;;;;;;;9.96;78.56;98301.06;4189352;28;20242;-60
2022/04/25 03:13:00;;;;;;;27.10;12.33;;;;;;;11.12;75.26;98188.06;4189500;28;20231;-62
2022/04/25 03:15:01;;;;;;;31.13;12.47;;;;;;;11.13;74.72;98189.72;4190713;28;20226;-62
2022/04/25 03:17:03;;;;;;;30.03;12.73;;;;;;;11.10;72.43;98151.03;4190336;28;20689;-61
2022/04/25 03:19:05;;;;;;;22.50;12.53;;;;;;;11.81;72.34;98111.53;4190107;28;20235;-60
2022/04/25 03:21:07;;;;;;;19.30;12.13;;;;;;;10.69;75.13;98221.03;4190392;28;20239;-61
2022/04/25 03:23:08;;;;;;;28.73;11.90;;;;;;;10.67;77.30;98244.34;4189771;28;20235;-61
2022/04/25 03:25:10;;;;;;;22.70;12.23;;;;;;;11.92;71.78;98084.31;4190418;28;20289;-60
2022/04/25 03:27:12;;;;;;;19.73;11.90;;;;;;;11.78;72.83;98112.78;4183063;28;20250;-61
2022/04/25 03:29:13;;;;;;;19.57;12.10;;;;;;;12.28;70.51;98067.78;4184911;28;20288;-61
2022/04/25 03:31:15;;;;;;;27.97;12.53;;;;;;;12.64;68.94;98050.41;4187012;28;20614;-61
2022/04/25 03:33:17;;;;;;;28.60;12.93;;;;;;;12.69;68.70;98052.44;4189976;28;20239;-61
2022/04/25 03:35:22;;;;;;;29.77;13.00;;;;;;;12.45;69.45;98054.81;4190262;28;20525;-61
2022/04/25 03:37:24;;;;;;;29.80;13.60;;;;;;;12.44;69.66;98063.03;4189471;28;20231;-69
2022/04/25 03:39:25;;;;;;;30.87;13.13;;;;;;;12.59;69.18;98066.22;4188339;28;20811;-61
2022/04/25 03:41:31;;;;;;;23.00;12.73;;;;;;;12.05;70.62;98094.94;4189288;28;20219;-61
2022/04/25 03:43:32;;;;;;;23.90;12.67;;;;;;;10.55;75.34;98241.41;4184393;28;20724;-61
2022/04/25 03:45:36;;;;;;;31.93;12.70;;;;;;;11.07;74.54;98223.28;4196235;22;20284;-88
2022/04/25 03:47:41;;;;;;;27.00;12.17;;;;;;;12.37;70.31;98084.38;4184628;28;20309;-89
2022/04/25 07:30:08;;;;;;;24.47;20.47;;;;;;;12.19;69.73;98295.56;4068276;29;20244;-28
2022/04/25 07:32:10;;;;;;;24.03;21.07;;;;;;;12.20;68.45;98269.72;4074433;29;20677;-31
2022/04/25 07:34:12;;;;;;;26.73;22.53;;;;;;;12.17;69.58;98302.09;4072428;28;20888;-29
2022/04/25 07:36:15;;;;;;;23.87;21.27;;;;;;;12.33;69.25;98264.38;4072300;28;20244;-30
2022/04/25 07:38:20;;;;;;;26.33;22.73;;;;;;;13.16;65.63;98180.22;4073950;28;20326;-29
2022/04/25 07:40:22;;;;;;;25.63;22.87;;;;;;;13.28;66.27;98188.38;4074253;28;20296;-32
2022/04/25 07:42:24;;;;;;;25.30;22.57;;;;;;;12.74;66.96;98219.78;4066507;28;20710;-31
2022/04/25 07:44:27;;;;;;;26.47;22.90;;;;;;;12.36;69.12;98285.31;4069140;28;20291;-31
2022/04/25 07:46:32;;;;;;;26.70;23.67;;;;;;;11.82;70.64;98342.22;4073379;28;20307;-30
2022/04/25 07:48:34;;;;;;;24.93;22.20;;;;;;;10.68;73.62;98412.63;4064060;28;20268;-28
2022/04/25 07:50:36;;;;;;;24.87;21.00;;;;;;;11.94;71.52;98324.66;4069681;28;20228;-28
2022/04/25 07:52:38;;;;;;;25.93;22.13;;;;;;;13.34;66.28;98168.84;4066872;28;20881;-30
2022/04/25 07:54:40;;;;;;;27.63;23.03;;;;;;;13.16;66.43;98180.22;4071884;28;20243;-30
2022/04/25 07:56:45;;;;;;;26.90;23.90;;;;;;;12.66;68.36;98224.34;4072301;28;20236;-28
2022/04/25 07:58:46;;;;;;;25.97;22.50;;;;;;;12.04;69.26;98287.75;4070825;28;20240;-29
2022/04/25 08:00:48;;;;;;;27.43;23.07;;;;;;;9.03;81.61;98510.28;4073091;28;20248;-29
2022/04/25 08:02:50;;;;;;;24.80;21.67;;;;;;;8.74;84.45;98541.00;4068298;28;20244;-28
2022/04/25 08:04:52;;;;;;;26.80;22.67;;;;;;;9.47;81.25;98516.69;4075854;28;20244;-28
2022/04/25 08:06:54;;;;;;;28.67;22.43;;;;;;;12.31;72.11;98221.13;4068618;28;20243;-28
2022/04/25 08:08:57;;;;;;;28.33;25.20;;;;;;;13.65;66.56;98119.09;4069270;28;20284;-32
2022/04/25 08:10:58;;;;;;;30.70;25.77;;;;;;;14.22;65.01;98106.41;4067174;28;20691;-30
2022/04/25 08:18:00;;;;;;;41.40;32.30;;;;;;;13.19;66.90;98195.81;4068926;28;20234;-30
2022/04/25 08:20:02;;;;;;;37.67;30.07;;;;;;;11.78;72.16;98354.28;4072306;28;20240;-31
2022/04/25 08:22:07;;;;;;;36.40;29.30;;;;;;;12.30;70.02;98267.47;4068485;28;20235;-30
2022/04/25 08:24:10;;;;;;;38.43;29.17;;;;;;;12.54;70.21;98266.00;4076554;28;20248;-33
2022/04/25 08:26:12;;;;;;;37.50;30.43;;;;;;;11.56;73.81;98362.44;4069598;28;20234;-28
2022/04/25 08:28:14;;;;;;;32.77;26.80;;;;;;;12.43;71.82;98277.31;4076124;28;20678;-28
2022/04/25 08:30:17;;;;;;;35.57;29.80;;;;;;;13.42;67.74;98168.56;4062352;28;20781;-30
2022/04/25 08:32:19;;;;;;;34.83;28.67;;;;;;;12.57;69.87;98235.44;4074328;28;20238;-28
2022/04/25 08:34:23;;;;;;;32.77;27.73;;;;;;;12.73;69.66;98232.31;4072339;28;20291;-33
2022/04/25 08:36:25;;;;;;;34.93;28.43;;;;;;;11.96;73.87;98346.56;4071807;28;20648;-29
2022/04/25 08:38:26;;;;;;;34.47;26.57;;;;;;;11.01;77.23;98409.44;4071704;28;20788;-31
2022/04/25 08:40:28;;;;;;;32.83;27.43;;;;;;;13.02;70.87;98216.84;4074015;28;21369;-31
2022/04/25 08:42:31;;;;;;;33.53;26.73;;;;;;;12.50;72.82;98248.78;4066127;28;20228;-31
2022/04/25 08:44:55;;;;;;;33.83;27.97;;;;;;;12.38;73.74;98277.09;4070636;28;20278;-29
2022/04/25 08:46:59;;;;;;;32.63;27.40;;;;;;;13.72;68.37;98138.53;4077470;28;20258;-31
2022/04/25 08:49:05;;;;;;;36.10;29.67;;;;;;;14.04;67.69;98139.31;4067859;28;20250;-30
2022/04/25 08:51:10;;;;;;;34.67;28.60;;;;;;;13.25;70.15;98170.94;4075471;28;20251;-32
2022/04/25 08:53:13;;;;;;;32.27;27.17;;;;;;;13.74;68.75;98169.34;4067718;28;20271;-29
2022/04/25 08:55:16;;;;;;;35.50;29.43;;;;;;;12.01;75.08;98327.31;4070754;28;20299;-30
2022/04/25 08:57:18;;;;;;;33.87;28.20;;;;;;;12.29;73.98;98316.47;4072735;28;20777;-31
2022/04/25 08:59:20;;;;;;;32.57;26.13;;;;;;;12.16;74.52;98306.63;4072641;28;20244;-28
2022/04/25 09:01:24;;;;;;;32.13;26.87;;;;;;;13.46;69.86;98174.31;4071021;28;20775;-31
2022/04/25 09:03:26;;;;;;;32.80;27.23;;;;;;;12.22;74.27;98287.16;4070091;28;20236;-29
2022/04/25 09:05:27;;;;;;;27.83;24.03;;;;;;;12.96;71.32;98201.69;4106214;28;21145;-28
2022/04/25 09:07:29;;;;;;;26.63;23.73;;;;;;;13.64;69.69;98161.00;4065105;28;20813;-29
2022/04/25 09:09:32;;;;;;;28.37;23.93;;;;;;;13.30;69.58;98175.63;4067446;28;20304;-30
2022/04/25 09:13:55;;;;;;;29.03;24.40;;;;;;;13.57;70.42;98186.97;4064828;28;20304;-28
2022/04/25 09:15:57;;;;;;;24.57;21.60;;;;;;;11.76;75.02;98351.81;4064837;28;20236;-30
2022/04/25 09:17:59;;;;;;;23.93;20.10;;;;;;;13.63;69.18;98182.59;4070500;28;20710;-29
2022/04/25 09:20:01;;;;;;;25.10;21.83;;;;;;;13.68;68.98;98182.75;4071146;28;20244;-30
2022/04/25 09:22:04;;;;;;;25.60;22.80;;;;;;;14.37;66.09;98134.66;4070784;28;20273;-31
2022/04/25 09:24:32;;;;;;;24.13;21.53;;;;;;;13.61;69.98;98208.72;4070414;28;20244;-32
2022/04/25 09:26:40;;;;;;;24.90;21.73;;;;;;;14.05;68.64;98161.50;4067033;28;21046;-30
2022/04/25 09:28:55;;;;;;;24.57;21.87;;;;;;;14.01;69.30;98184.38;4104119;28;20251;-28
2022/04/25 09:31:00;;;;;;;25.93;22.73;;;;;;;14.34;67.70;98162.63;4069473;28;20294;-32
2022/04/25 09:33:03;;;;;;;25.60;22.90;;;;;;;14.88;66.82;98144.13;4063672;28;20276;-32
2022/04/25 09:35:32;;;;;;;26.17;23.10;;;;;;;14.42;67.46;98162.34;4066525;28;20727;-29
2022/04/25 09:37:48;;;;;;;25.07;21.67;;;;;;;14.92;66.42;98157.88;4064734;28;20232;-29
2022/04/25 09:39:49;;;;;;;22.87;20.23;;;;;;;13.99;70.21;98226.50;4071659;28;20236;-29
2022/04/25 09:41:51;;;;;;;21.53;19.23;;;;;;;12.32;74.34;98353.38;4065971;28;20232;-28
2022/04/25 09:43:58;;;;;;;24.60;20.00;;;;;;;13.48;72.55;98268.34;4065386;28;20280;-30
2022/04/25 09:46:07;;;;;;;21.17;18.73;;;;;;;13.79;70.73;98230.16;4059331;28;20240;-32
2022/04/25 09:48:09;;;;;;;20.97;18.50;;;;;;;14.75;67.36;98163.84;4066229;28;20248;-30
2022/04/25 09:50:14;;;;;;;21.70;19.40;;;;;;;15.36;64.79;98129.03;4067263;28;20240;-31
2022/04/25 09:53:02;;;;;;;21.53;19.23;;;;;;;14.48;68.91;98209.59;4060936;28;20613;-28
2022/04/25 09:55:11;;;;;;;23.77;18.50;;;;;;;13.92;71.91;98253.28;4071417;28;20619;-29
2022/04/25 09:57:29;;;;;;;18.53;15.70;;;;;;;12.92;69.32;98292.00;4065509;28;20295;-32
2022/04/25 09:59:43;;;;;;;17.20;15.00;;;;;;;13.20;72.46;98310.38;4070300;28;20224;-29
2022/04/25 10:01:59;;;;;;;17.33;15.53;;;;;;;14.85;66.20;98166.81;4067004;28;20329;-31
2022/04/25 10:04:03;;;;;;;17.30;15.53;;;;;;;13.19;72.40;98327.41;4072125;28;20250;-28
2022/04/25 10:06:06;;;;;;;18.47;16.50;;;;;;;14.94;65.91;98161.16;4071585;28;20240;-28
2022/04/25 10:08:10;;;;;;;17.57;15.67;;;;;;;14.91;65.11;98151.69;4070121;28;20240;-31
2022/04/25 10:10:12;;;;;;;16.40;14.70;;;;;;;14.79;65.52;98167.72;4068078;28;20331;-33
2022/04/25 10:12:15;;;;;;;15.67;14.07;;;;;;;15.71;61.68;98131.81;4070261;28;20239;-30
2022/04/25 10:14:17;;;;;;;17.93;15.23;;;;;;;15.36;62.95;98145.91;4073290;28;20298;-31
2022/04/25 10:16:20;;;;;;;16.60;14.90;;;;;;;14.85;64.42;98208.81;4067421;28;20236;-30
2022/04/25 10:18:25;;;;;;;16.20;14.50;;;;;;;15.66;61.90;98169.19;4073393;28;20232;-31
2022/04/25 10:20:26;;;;;;;17.23;14.70;;;;;;;15.70;61.43;98154.28;4065579;28;20283;-31
2022/04/25 10:22:28;;;;;;;11.73;10.53;;;;;;;14.46;64.60;98226.91;4072170;28;20241;-32
2022/04/25 10:24:32;;;;;;;11.33;10.13;;;;;;;15.76;61.92;98171.28;4069132;28;20236;-29
2022/04/25 10:26:35;;;;;;;11.53;10.40;;;;;;;15.54;62.62;98153.06;4070162;28;20311;-31
2022/04/25 10:28:48;;;;;;;13.13;10.77;;;;;;;13.03;65.95;98350.03;4073459;28;20237;-28
2022/04/25 10:30:50;;;;;;;11.23;9.40;;;;;;;15.15;62.15;98203.47;4070044;28;20679;-31
2022/04/25 10:33:10;;;;;;;9.00;7.63;;;;;;;15.48;59.45;98156.66;4070842;28;20336;-31
2022/04/25 10:35:29;;;;;;;8.20;6.87;;;;;;;14.95;60.49;98224.31;4064724;28;20240;-31
2022/04/25 10:37:36;;;;;;;8.60;7.70;;;;;;;16.13;57.67;98146.94;4073842;28;20229;-29
2022/04/25 10:39:47;;;;;;;8.90;8.00;;;;;;;15.22;62.16;98208.72;4069145;28;20236;-28
2022/04/25 10:44:18;;;;;;;12.57;10.60;;;;;;;15.13;62.84;98218.94;4065839;28;20232;-31
2022/04/25 10:46:20;;;;;;;12.07;10.50;;;;;;;12.84;66.87;98362.38;4073033;28;20248;-28
2022/04/25 10:48:22;;;;;;;10.80;9.70;;;;;;;12.52;68.24;98437.88;4062294;28;20236;-30
2022/04/25 10:50:25;;;;;;;12.37;10.33;;;;;;;14.88;64.02;98198.47;4058556;28;20661;-30
2022/04/25 10:52:51;;;;;;;12.13;10.83;;;;;;;15.32;62.79;98170.69;4064714;28;20930;-29
2022/04/25 10:55:11;;;;;;;11.83;10.63;;;;;;;13.38;67.82;98309.69;4069103;28;20916;-31
2022/04/25 10:57:14;;;;;;;11.63;10.43;;;;;;;15.71;63.26;98122.91;4065897;28;20705;-29
2022/04/25 10:59:27;;;;;;;12.07;10.47;;;;;;;16.02;60.31;98105.69;4067533;28;20244;-30
2022/04/25 11:03:31;;;;;;;12.93;11.50;;;;;;;13.86;65.59;98279.03;4199790;27;20561;-66
2022/04/25 11:05:39;;;;;;;12.50;11.30;;;;;;;14.66;66.45;98250.75;4201272;28;20226;-66
2022/04/25 11:07:42;;;;;;;12.70;11.40;;;;;;;15.04;65.90;98194.34;4194300;28;20249;-66
2022/04/25 11:09:43;;;;;;;8.37;7.40;;;;;;;14.64;64.08;98237.59;4197912;28;20280;-66
2022/04/25 11:11:47;;;;;;;7.27;6.47;;;;;;;14.67;64.52;98241.72;4197901;28;20234;-66
2022/04/25 11:13:48;;;;;;;7.07;6.07;;;;;;;15.09;63.37;98195.56;4199118;28;20235;-66
2022/04/25 11:15:58;;;;;;;7.57;6.77;;;;;;;14.66;63.06;98229.34;4195188;28;20231;-66
2022/04/25 11:18:34;;;;;;;8.20;7.40;;;;;;;15.87;61.41;98153.59;4198496;28;20746;-66
2022/04/25 11:20:58;;;;;;;9.30;8.27;;;;;;;12.91;66.92;98396.25;4190969;28;20676;-66
2022/04/25 11:23:26;;;;;;;7.33;6.13;;;;;;;13.48;64.64;98357.28;4196395;28;20270;-66
2022/04/25 11:25:29;;;;;;;7.40;6.67;;;;;;;13.51;65.14;98338.16;4195365;28;20242;-65
2022/04/25 11:28:19;;;;;;;7.87;6.50;;;;;;;14.19;64.95;98296.69;4192932;28;20287;-65
2022/04/25 11:30:21;;;;;;;10.37;8.03;;;;;;;14.76;64.74;98231.56;4190140;28;20280;-66
2022/04/25 11:32:35;;;;;;;9.27;8.30;;;;;;;14.10;64.54;98265.91;4204010;28;20222;-66
2022/04/25 11:34:38;;;;;;;9.00;7.93;;;;;;;14.42;63.96;98290.69;4193462;28;20223;-66
2022/04/25 11:36:41;;;;;;;9.87;7.93;;;;;;;13.63;65.75;98324.16;4194344;28;20229;-66
2022/04/25 11:41:05;;;;;;;6.70;6.00;;;;;;;15.05;60.22;98196.00;4201770;28;20309;-66
2022/04/25 11:43:07;;;;;;;7.20;6.50;;;;;;;14.95;61.46;98251.09;4202825;28;20231;-66
2022/04/25 11:45:08;;;;;;;7.80;6.73;;;;;;;14.83;60.57;98237.63;4200923;28;20234;-66
2022/04/25 11:47:10;;;;;;;8.27;7.37;;;;;;;15.04;62.09;98236.38;4188964;28;20232;-66
2022/04/25 11:49:27;;;;;;;8.00;7.20;;;;;;;16.08;59.37;98153.00;4192663;28;20233;-66
2022/04/25 11:51:38;;;;;;;7.77;6.13;;;;;;;16.43;55.44;98119.94;4204741;28;20237;-66
2022/04/25 11:53:40;;;;;;;8.20;7.40;;;;;;;14.88;61.77;98254.69;4196714;28;20295;-66
2022/04/25 11:55:42;;;;;;;8.70;7.47;;;;;;;14.49;63.86;98326.22;4200978;28;20227;-66
2022/04/25 11:57:45;;;;;;;9.43;8.43;;;;;;;13.64;64.41;98355.97;4191641;28;20250;-66
2022/04/25 11:59:47;;;;;;;8.63;7.70;;;;;;;14.40;61.14;98265.25;4190076;28;20719;-66
2022/04/25 12:01:50;;;;;;;8.37;7.43;;;;;;;15.24;60.85;98220.06;4191461;28;20243;-66
2022/04/25 12:03:53;;;;;;;9.00;6.93;;;;;;;14.49;62.33;98309.38;4196481;28;20238;-66
2022/04/25 12:06:07;;;;;;;7.30;6.60;;;;;;;14.56;61.38;98251.28;4203823;28;20258;-66
2022/04/25 12:15:34;;;;;;;9.33;6.90;;;;;;;16.55;59.11;98134.19;4191183;28;20286;-66
2022/04/25 12:17:44;;;;;;;7.70;6.90;;;;;;;15.34;58.37;98225.69;4186276;28;20247;-66
2022/04/25 12:20:02;;;;;;;6.50;5.90;;;;;;;16.87;57.20;98147.16;4184978;28;20306;-66
2022/04/25 12:22:05;;;;;;;7.47;6.50;;;;;;;16.97;56.83;98151.06;4184255;28;20720;-66
2022/04/25 12:24:15;;;;;;;8.03;6.60;;;;;;;16.83;56.76;98158.59;4178808;28;20243;-66
2022/04/25 12:26:20;;;;;;;9.13;6.97;;;;;;;16.81;56.46;98142.75;4181478;28;20246;-66
2022/04/25 12:28:28;;;;;;;7.63;6.90;;;;;;;17.38;53.70;98131.16;4185234;28;20232;-66
2022/04/25 12:30:44;;;;;;;7.73;6.80;;;;;;;17.56;53.50;98116.66;4181333;28;20588;-65
2022/04/25 12:32:46;;;;;;;8.10;7.30;;;;;;;17.75;53.14;98111.88;4178711;28;20232;-66
2022/04/25 12:34:48;;;;;;;7.40;6.20;;;;;;;17.06;54.36;98149.66;4182318;28;20663;-66
2022/04/25 12:36:57;;;;;;;7.90;5.67;;;;;;;14.50;59.99;98391.25;4188682;28;20324;-66
2022/04/25 12:39:09;;;;;;;8.43;7.27;;;;;;;14.58;59.66;98382.97;4181602;28;20239;-66
2022/04/25 12:41:30;;;;;;;7.73;6.57;;;;;;;15.80;57.71;98259.03;4190963;28;20227;-66
2022/04/25 12:43:42;;;;;;;6.93;6.23;;;;;;;16.91;55.78;98177.03;4185077;28;20284;-66
2022/04/25 12:45:49;;;;;;;7.03;6.33;;;;;;;17.33;53.33;98154.44;4184856;28;20232;-66
2022/04/25 12:47:58;;;;;;;6.87;6.17;;;;;;;17.13;52.19;98146.78;4178132;28;20231;-66
2022/04/25 12:50:01;;;;;;;6.37;5.47;;;;;;;17.68;50.88;98140.75;4184840;28;20614;-67
2022/04/25 12:52:06;;;;;;;6.47;5.77;;;;;;;17.50;52.92;98147.22;4185819;28;20289;-66
2022/04/25 12:54:23;;;;;;;7.10;6.20;;;;;;;17.35;55.91;98158.50;4181145;28;20290;-66
2022/04/25 12:56:31;;;;;;;6.83;6.13;;;;;;;17.36;52.16;98160.16;4178369;28;20289;-66
2022/04/25 12:58:34;;;;;;;7.37;6.53;;;;;;;17.43;52.44;98165.34;4181256;28;20329;-66
2022/04/25 13:00:47;;;;;;;5.97;5.30;;;;;;;17.27;50.79;98191.91;4185813;28;20224;-66
2022/04/25 13:03:10;;;;;;;6.63;4.83;;;;;;;16.84;52.99;98244.25;4182719;28;20273;-66
2022/04/25 13:05:13;;;;;;;9.37;8.47;;;;;;;14.36;58.56;98470.75;4185198;28;20242;-66
2022/04/25 13:07:15;;;;;;;8.90;8.07;;;;;;;14.09;58.23;98486.09;4187710;28;20238;-65
2022/04/25 13:09:16;;;;;;;9.23;8.30;;;;;;;13.52;59.42;98534.75;4187691;28;20269;-65
2022/04/25 13:11:26;;;;;;;9.53;8.47;;;;;;;13.99;59.69;98493.75;4177692;28;20289;-65
2022/04/25 13:13:28;;;;;;;11.60;8.17;;;;;;;13.22;59.58;98539.72;4179072;28;20235;-64
2022/04/25 13:15:30;;;;;;;9.50;7.87;;;;;;;13.59;58.03;98540.09;4179991;28;20231;-64
2022/04/25 13:17:32;;;;;;;8.70;7.80;;;;;;;13.54;57.94;98526.53;4189560;28;20695;-64
2022/04/25 13:19:34;;;;;;;8.57;7.77;;;;;;;13.42;58.97;98523.69;4191226;28;20608;-65
2022/04/25 13:21:39;;;;;;;8.40;7.50;;;;;;;13.88;57.50;98463.19;4182531;28;20237;-65
2022/04/25 13:23:41;;;;;;;8.40;6.97;;;;;;;13.54;58.98;98495.31;4183377;28;20231;-65
2022/04/25 13:25:43;;;;;;;8.07;7.27;;;;;;;13.90;58.04;98451.22;4182069;28;20254;-65
2022/04/25 13:27:44;;;;;;;8.17;7.33;;;;;;;14.05;57.56;98410.88;4185355;28;20223;-65
2022/04/25 13:29:47;;;;;;;8.43;7.17;;;;;;;13.18;59.00;98467.25;4184033;28;20235;-65
2022/04/25 13:31:48;;;;;;;8.00;6.60;;;;;;;13.40;58.71;98467.00;4188696;28;20269;-65
2022/04/25 13:33:50;;;;;;;7.33;6.63;;;;;;;13.50;58.86;98459.38;4182027;28;20782;-65
2022/04/25 13:35:51;;;;;;;7.00;6.37;;;;;;;14.03;58.73;98386.22;4183084;28;20247;-65
2022/04/25 13:37:53;;;;;;;7.57;6.87;;;;;;;14.21;57.96;98355.25;4177704;28;20301;-65
2022/04/25 13:39:55;;;;;;;6.53;5.83;;;;;;;14.90;58.71;98321.34;4182474;28;20239;-65
2022/04/25 13:41:58;;;;;;;6.93;6.23;;;;;;;14.63;57.17;98326.94;4186941;28;20871;-65
2022/04/25 13:44:04;;;;;;;6.60;5.90;;;;;;;14.93;57.81;98298.66;4182133;28;20236;-66